createdAt,value
2022-07-25T00:00:00.188Z,1.1
2022-07-25T00:05:00.318Z,1.1
2022-07-25T00:10:00.194Z,1.1
2022-07-25T00:15:00.176Z,1.1
2022-07-25T00:20:00.181Z,1.1
2022-07-25T00:25:00.182Z,1.1
2022-07-25T00:30:00.231Z,1.1
2022-07-25T00:35:00.296Z,1.1
2022-07-25T00:40:00.186Z,1.1
2022-07-25T00:45:00.254Z,1.1
2022-07-25T00:50:00.201Z,1.1
2022-07-25T00:55:00.169Z,1.1
2022-07-25T01:00:00.199Z,1.1
2022-07-25T01:05:00.188Z,1.1
2022-07-25T01:10:00.262Z,1.1
2022-07-25T01:15:00.175Z,1.1
2022-07-25T01:20:00.215Z,1.1
2022-07-25T01:25:00.176Z,1.1
2022-07-25T01:30:00.230Z,1.1
2022-07-25T01:35:00.187Z,1.1
2022-07-25T01:40:00.212Z,1.1
2022-07-25T01:45:00.175Z,1.1
2022-07-25T01:50:00.215Z,1.1
2022-07-25T01:55:00.208Z,1.1
2022-07-25T02:00:00.277Z,1.1
2022-07-25T02:05:01.171Z,1.1
2022-07-25T02:10:01.279Z,1.1
2022-07-25T02:15:00.675Z,1.1
2022-07-25T02:20:00.686Z,1.1
2022-07-25T02:25:00.391Z,1.1
2022-07-25T02:30:00.174Z,1.1
2022-07-25T02:35:00.183Z,1.1
2022-07-25T02:40:00.175Z,1.1
2022-07-25T02:45:00.188Z,1.1
2022-07-25T02:50:00.218Z,1.1
2022-07-25T02:55:00.195Z,1.1
2022-07-25T03:00:00.206Z,1.1
2022-07-25T03:05:00.162Z,1.1
2022-07-25T03:10:00.189Z,1.1
2022-07-25T03:15:00.182Z,1.1
2022-07-25T03:20:00.203Z,1.1
2022-07-25T03:25:00.184Z,1.8
2022-07-25T03:30:00.193Z,3.9
2022-07-25T03:35:00.177Z,8.4
2022-07-25T03:40:00.172Z,17.6
2022-07-25T03:45:00.172Z,33.6
2022-07-25T03:50:00.200Z,56.9
2022-07-25T03:55:00.165Z,86.5
2022-07-25T04:00:00.209Z,122.4
2022-07-25T04:05:00.188Z,163.1
2022-07-25T04:10:00.169Z,207.2
2022-07-25T04:15:00.209Z,250.9
2022-07-25T04:20:00.253Z,296.6
2022-07-25T04:25:00.176Z,338.3
2022-07-25T04:30:00.206Z,381.3
2022-07-25T04:35:00.205Z,419.6
2022-07-25T04:40:00.189Z,450.8
2022-07-25T04:45:00.199Z,484.3
2022-07-25T04:50:00.236Z,520.3
2022-07-25T04:55:00.173Z,552.4
2022-07-25T05:00:00.173Z,579.4
2022-07-25T05:05:00.180Z,607.8
2022-07-25T05:10:00.189Z,637.6
2022-07-25T05:15:00.186Z,668.8
2022-07-25T05:20:00.185Z,693.3
2022-07-25T05:25:00.177Z,718.6
2022-07-25T05:30:00.177Z,744.8
2022-07-25T05:35:00.168Z,772.1
2022-07-25T05:40:00.170Z,790.8
2022-07-25T05:45:00.179Z,829.5
2022-07-25T05:50:00.199Z,859.8
2022-07-25T05:55:00.191Z,901.9
2022-07-25T06:00:00.168Z,957.5
2022-07-25T06:05:00.196Z,992.5
2022-07-25T06:10:00.208Z,1016.5
2022-07-25T06:15:00.168Z,1053.6
2022-07-25T06:20:00.208Z,1079.1
2022-07-25T06:25:00.167Z,1105.3
2022-07-25T06:30:00.168Z,1145.6
2022-07-25T06:35:00.189Z,1201.7
2022-07-25T06:40:00.210Z,1245.7
2022-07-25T06:45:00.168Z,1275.8
2022-07-25T06:50:00.174Z,1338.3
2022-07-25T06:55:00.169Z,1420.8
2022-07-25T07:00:00.182Z,1455.2
2022-07-25T07:05:00.179Z,1508.3
2022-07-25T07:10:00.225Z,1526.4
2022-07-25T07:15:00.214Z,1582.3
2022-07-25T07:20:00.219Z,1620.5
2022-07-25T07:25:00.181Z,1640
2022-07-25T07:30:00.178Z,1679.7
2022-07-25T07:35:00.177Z,1720.4
2022-07-25T07:40:00.185Z,1804.7
2022-07-25T07:45:00.236Z,1938.9
2022-07-25T07:50:00.190Z,2185.2
2022-07-25T07:55:00.179Z,2376
2022-07-25T08:00:00.309Z,2522.4
2022-07-25T08:05:00.187Z,2614.6
2022-07-25T08:10:00.433Z,2710.1
2022-07-25T08:15:00.346Z,2775.6
2022-07-25T08:20:20.722Z,2809
2022-07-25T08:25:00.235Z,2877.1
2022-07-25T08:30:00.260Z,2911.7
2022-07-25T08:35:00.235Z,2946.7
2022-07-25T08:40:00.335Z,2946.7
2022-07-25T08:45:00.302Z,2946.7
2022-07-25T08:50:04.133Z,2982.2
2022-07-25T08:55:00.186Z,3018
2022-07-25T09:00:00.208Z,2982.2
2022-07-25T09:05:00.142Z,2946.7
2022-07-25T09:10:00.180Z,2946.7
2022-07-25T09:15:00.182Z,3018
2022-07-25T09:20:00.160Z,2946.7
2022-07-25T09:25:00.180Z,2982.2
2022-07-25T09:30:00.202Z,2982.2
2022-07-25T09:35:00.197Z,3018
2022-07-25T09:40:00.159Z,3018
2022-07-25T09:45:00.198Z,3018
2022-07-25T09:50:00.209Z,3054.3
2022-07-25T09:55:00.201Z,3091.1
2022-07-25T10:00:00.234Z,3128.2
2022-07-25T10:05:00.174Z,3165.8
2022-07-25T10:10:00.203Z,3165.8
2022-07-25T10:15:00.163Z,3242.6
2022-07-25T10:20:00.191Z,3281.6
2022-07-25T10:25:00.164Z,3321.1
2022-07-25T10:30:00.201Z,3401.4
2022-07-25T10:35:00.203Z,3442.3
2022-07-25T10:40:00.218Z,3525.6
2022-07-25T10:45:00.211Z,3568
2022-07-25T10:50:21.914Z,3611.1
2022-07-25T10:55:00.187Z,3654.5
2022-07-25T11:00:00.195Z,3654.5
2022-07-25T11:05:00.189Z,3788
2022-07-25T11:10:00.202Z,3788
2022-07-25T11:15:00.177Z,3879.6
2022-07-25T11:20:00.241Z,3879.6
2022-07-25T11:25:00.201Z,3926.3
2022-07-25T11:30:00.186Z,3879.6
2022-07-25T11:35:00.181Z,3973.5
2022-07-25T11:40:00.185Z,3926.3
2022-07-25T11:55:00.204Z,4021.3
2022-07-25T12:15:00.187Z,4218.4
2022-07-25T12:20:00.305Z,4320.5
2022-07-25T12:30:00.205Z,4425
2022-07-25T12:45:29.075Z,4754.3
2022-07-25T13:15:00.189Z,5358.2
2022-07-25T13:25:00.196Z,4586.8
2022-07-25T13:30:00.256Z,5756.7
2022-07-25T13:35:00.705Z,6185
2022-07-25T13:40:00.187Z,6410.8
2022-07-25T13:45:00.602Z,6487.9
2022-07-25T13:50:00.465Z,6806
2022-07-25T13:55:00.282Z,8143.1
2022-07-25T14:00:00.347Z,7579.5
2022-07-25T14:05:03.939Z,5826.2
2022-07-25T14:10:00.266Z,5107.8
2022-07-25T14:15:00.439Z,4069.8
2022-07-25T14:20:00.515Z,6487.9
2022-07-25T14:25:00.225Z,9627.4
2022-07-25T14:30:00.228Z,9068.4
2022-07-25T14:35:00.326Z,8143.1
2022-07-25T14:40:00.303Z,5826.2
2022-07-25T14:45:00.354Z,5294.6
2022-07-25T14:50:00.359Z,6970.7
2022-07-25T14:55:00.213Z,6334.7
2022-07-25T15:00:00.224Z,6725.2
2022-07-25T15:05:00.569Z,10593.6
2022-07-25T15:10:00.390Z,8046.3
2022-07-25T15:15:00.385Z,7139.4
2022-07-25T15:20:00.365Z,9979
2022-07-25T15:25:37.221Z,6038.9
2022-07-25T15:30:00.756Z,7054.5
2022-07-25T15:35:00.380Z,4811.5
2022-07-25T15:40:00.884Z,9287.8
2022-07-25T15:45:30.218Z,6334.7
2022-07-25T15:50:00.724Z,5422.7
2022-07-25T15:55:00.405Z,5826.2
2022-07-25T16:00:00.196Z,6259.4
2022-07-25T16:05:00.172Z,5756.7
2022-07-25T16:10:00.207Z,5294.6
2022-07-25T16:15:00.329Z,6806
2022-07-25T16:20:00.178Z,5231.6
2022-07-25T16:25:00.165Z,5422.7
2022-07-25T16:30:00.278Z,5231.6
2022-07-25T16:35:00.507Z,4869.3
2022-07-25T16:40:00.187Z,5231.6
2022-07-25T16:45:00.174Z,6970.7
2022-07-25T16:50:00.427Z,6259.4
2022-07-25T16:55:00.165Z,5553.9
2022-07-25T17:00:00.250Z,5967.1
2022-07-25T17:05:00.297Z,5620.7
2022-07-25T17:10:00.192Z,5487.9
2022-07-25T17:15:00.175Z,4754.3
2022-07-25T17:20:00.513Z,4642
2022-07-25T17:25:00.181Z,2677.9
2022-07-25T17:30:00.181Z,3054.3
2022-07-25T17:35:00.455Z,3242.6
2022-07-25T17:40:00.200Z,2911.7
2022-07-25T17:45:00.245Z,2710.1
2022-07-25T17:50:00.312Z,980.7
2022-07-25T17:55:00.247Z,1508.3
2022-07-25T18:00:00.168Z,1245.7
2022-07-25T18:05:00.247Z,772.1
2022-07-25T18:10:00.207Z,880.6
2022-07-25T18:15:00.357Z,539.3
2022-07-25T18:20:00.261Z,781.4
2022-07-25T18:25:00.327Z,829.5
2022-07-25T18:30:00.299Z,653
2022-07-25T18:35:00.178Z,579.4
2022-07-25T18:40:00.192Z,395.2
2022-07-25T18:45:00.216Z,404.8
2022-07-25T18:50:00.293Z,314.9
2022-07-25T18:55:00.433Z,199.9
2022-07-25T19:00:03.020Z,146.5
2022-07-25T19:05:00.379Z,111.2
2022-07-25T19:10:00.537Z,56.3
2022-07-25T19:15:00.220Z,45.9
2022-07-25T19:20:00.252Z,31.3
2022-07-25T19:25:00.178Z,17.2
2022-07-25T19:30:00.227Z,8.6
2022-07-25T19:35:00.284Z,4
2022-07-25T19:40:00.200Z,2
2022-07-25T19:45:00.254Z,1.1
2022-07-25T19:50:00.166Z,1.1
2022-07-25T19:55:00.258Z,1.1
2022-07-25T20:00:00.187Z,1.1
2022-07-25T20:05:00.168Z,1.1
2022-07-25T20:10:00.327Z,1.1
2022-07-25T20:15:00.173Z,1.1
2022-07-25T20:20:00.201Z,1.1
2022-07-25T20:25:00.181Z,1.1
2022-07-25T20:30:00.198Z,1.1
2022-07-25T20:35:00.179Z,1.1
2022-07-25T20:40:00.173Z,1.1
2022-07-25T20:45:00.178Z,1.1
2022-07-25T20:50:00.177Z,1.1
2022-07-25T20:55:01.325Z,1.1
2022-07-25T21:00:00.212Z,1.1
2022-07-25T21:05:00.227Z,1.1
2022-07-25T21:10:00.217Z,1.1
2022-07-25T21:15:00.178Z,1.1
2022-07-25T21:20:00.184Z,1.1
2022-07-25T21:25:00.397Z,1.1
2022-07-25T21:30:00.212Z,1.1
2022-07-25T21:35:00.187Z,1.1
2022-07-25T21:40:00.314Z,1.1
2022-07-25T21:45:00.572Z,1.1
2022-07-25T21:50:00.176Z,1.1
2022-07-25T21:55:00.178Z,1.1
2022-07-25T22:00:00.473Z,1.1
2022-07-25T22:05:00.342Z,1.1
2022-07-25T22:10:00.168Z,1.1
2022-07-25T22:15:00.169Z,1.1
2022-07-25T22:20:00.446Z,1.1
2022-07-25T22:25:02.103Z,1.1
2022-07-25T22:30:00.359Z,1.1
2022-07-25T22:35:00.342Z,1.1
2022-07-25T22:40:01.628Z,1.1
2022-07-25T22:45:00.413Z,1.1
2022-07-25T22:50:00.457Z,1.1
2022-07-25T22:55:00.410Z,1.1
2022-07-25T23:00:00.596Z,1.1
2022-07-25T23:05:00.236Z,1.1
2022-07-25T23:10:00.198Z,1.1
2022-07-25T23:15:00.419Z,1.1
2022-07-25T23:20:00.468Z,1.1
2022-07-25T23:25:00.167Z,1.1
2022-07-25T23:30:00.581Z,1.1
2022-07-25T23:35:00.178Z,1.1
2022-07-25T23:40:00.178Z,1.1
2022-07-25T23:45:00.313Z,1.1
2022-07-25T23:50:00.709Z,1.1
2022-07-25T23:55:00.326Z,1.1
